Baddeck, Canada
Current Conditions -  °F | °C
As of 5:00 PM on Friday 24 Oct 2014 (Local Time) from CYQY Reporting Station
Drizzle Drizzle  
Wind Chill: 55°   Ceiling: 200
Heat Index: 55°   Visibility: 0.37mi
Dew Point: 55°   Wind: 5mph
Humidity: 100%   Direction: 60°ENE
Pressure: 29.52"   Gusts: NA
Location:  46.1°N, 60.75°W
Report Text: CYQY 242000Z 06004KT 3/8SM R07/2600FT/N -DZ FG VV002 13/13 A2952 RMK FG8 SLP998 DENSITY ALT 400FT
Loading
Personal Weather Stations






























Interactive Weather Map
Tropical Storm Tracking
New forecast layout! Learn more

10-Day Weather Forecast

Advertisements
Track Severe Weather on mobile